This is the latest recevied weather packets stored in our database for station/object SP3PDK-1. If no packets are shown the sender has not sent any weather packets the latest 10 day(s).
| Time | Temp. | Humidity | Pressure | Rain* | Wind** | Luminosity | Snow |
|---|---|---|---|---|---|---|---|
| 1777709658 | 23.89° C | 32% | 1023.6 hPa | - | - | - | - |
| 1777709058 | 23.33° C | 33% | 1023.6 hPa | - | - | - | - |
| 1777708454 | 22.78° C | 35% | 1023.8 hPa | - | - | - | - |
| 1777707854 | 22.22° C | 36% | 1023.8 hPa | - | - | - | - |
| 1777706654 | 21.67° C | 39% | 1023.9 hPa | - | - | - | - |
| 1777706054 | 21.67° C | 39% | 1023.9 hPa | - | - | - | - |
| 1777705458 | 21.11° C | 38% | 1024 hPa | - | - | - | - |
| 1777704854 | 20.56° C | 39% | 1023.9 hPa | - | - | - | - |
| 1777704257 | 20° C | 40% | 1024 hPa | - | - | - | - |
| 1777703654 | 19.44° C | 41% | 1024.1 hPa | - | - | - | - |
| 1777703059 | 18.89° C | 46% | 1024.1 hPa | - | - | - | - |
| 1777702454 | 18.33° C | 47% | 1024.2 hPa | - | - | - | - |
| 1777701858 | 17.78° C | 45% | 1024.2 hPa | - | - | - | - |
| 1777701256 | 17.78° C | 47% | 1024.2 hPa | - | - | - | - |
| 1777700654 | 17.22° C | 47% | 1024.2 hPa | - | - | - | - |
| 1777700054 | 16.67° C | 49% | 1024.2 hPa | - | - | - | - |
| 1777699454 | 16.11° C | 49% | 1024.1 hPa | - | - | - | - |
| 1777698854 | 15.56° C | 51% | 1024.2 hPa | - | - | - | - |
| 1777698257 | 15° C | 52% | 1024.3 hPa | - | - | - | - |
| 1777697659 | 15° C | 53% | 1024.3 hPa | - | - | - | - |
| 1777697057 | 15° C | 53% | 1024.1 hPa | - | - | - | - |
| 1777696459 | 15° C | 54% | 1024.1 hPa | - | - | - | - |
| 1777695854 | 13.89° C | 58% | 1024.2 hPa | - | - | - | - |
| 1777695254 | 12.78° C | 61% | 1024.2 hPa | - | - | - | - |
| 1777694654 | 14.44° C | 56% | 1024.1 hPa | - | - | - | - |
* Rain since midnight (hover to see other rain measurements)
** Current wind speed in m/s (hover to see current wind gust speed)